Aguanga, CA

1:42 PM PDT on August 22, 2014 (GMT -0700)
NE Aguanga | Change Station
CLOSE
Current Station
Personal Weather Station
Location: Aguanga, CA
Elevation: 3724 ft
Nearby Weather Stations

Elev 3724 ft 33.49 °N, 116.78 °W | Updated 5 seconds ago

Clear
Clear
78.3 °F
Feels Like 79 °F
N
2.0
Wind Variable Wind from NW
Gusts 16.0 mph

Today
High -- | Low -- °F
--% Chance of Precip.
Yesterday
High -- | Low -- °F
Precip. -- in
6:14 AM 7:24 PM
Waning Crescent, 7% visible
Pressure 29.97 in
Visibility 10.0 miles
Clouds Clear
Heat Index 79 °F
Dew Point 57 °F
Humidity 48%
Rainfall 0.00 in
Snow Depth Not available.
UV 11 out of 12
Pollen 5.20 out of 12
Ozone Good
Flu Activity Not available.
METAR KF70 222035Z AUTO 23009G15KT 200V260 10SM CLR 30/12 A2997 RMK AO1

More Conditions Fewer Conditions

Pressure 29.97 in
Visibility 10.0 miles
Clouds Clear
Heat Index 79 °F
Dew Point 57 °F
Humidity 48%
Rainfall 0.00 in
Snow Depth Not available.
UV 11 out of 12
Pollen 5.20 out of 12
Ozone Good
Flu Activity Not available.
METAR KF70 222035Z AUTO 23009G15KT 200V260 10SM CLR 30/12 A2997 RMK AO1

More Conditions Fewer Conditions

10-Day Weather Forecast

Almanac

Astronomy

Aug. 22, 2014 Rise Set
Actual Time 6:14 AM PDT 7:24 PM PDT
Civil Twilight 5:48 AM PDT 7:50 PM PDT
Nautical Twilight 5:18 AM PDT 8:21 PM PDT
Astronomical Twilight 4:46 AM PDT 8:53 PM PDT
Moon 3:44 AM PDT 5:33 PM PDT
Length of Visible Light 14h 01m
Length of Day
13h 10m
Tomorrow will be 1m 54s shorter.
Waning Crescent, 7% of the Moon is Illuminated
Today
Waning Crescent
Aug 25
New
Sep 2
First Quarter
Sep 8
Full
Sep 15
Last Quarter

Today's Extremes

State Highs State Lows

Community

WunderPhotos

Upload Photos

1,746,245 photos uploaded!

Nearby

Air Quality

  Air Quality AQ Index Pollutant
Yesterday Moderate
PM10
Yesterday Good
OZONE
Current Good
OZONE
Saturday Moderate
OZONE
Saturday Good
PM10
Saturday Good
CO
Saturday Good
NO2

Snow Depth

Station Depth Elevation
Leavitt Lake 0 in 9400 ft
Leavitt Meadows 0 in 7200 ft
Summit Meadow 0 in 9122 ft
Forestdale Creek 0 in 8029 ft
Hagan's Meadow 0 in 8000 ft

Earthquake Activity

City Distance Mag. Time & Date
Big Bear City, California 62 miles 3.7 9:55 PM PDT
2014-08-17
Alberto Oviedo Mota, Mexico 122 miles 3.5 3:59 PM PDT
2014-08-17
Alberto Oviedo Mota, Mexico 123 miles 3.2 3:59 PM PDT
2014-08-17
Minimum magnitude displayed is 2.5.

Coastal Water Temperatures

Place Temperature
No Stations Reporting

Nearby Weather Stations